Time;durP1;ratioP1;P1;durP2;ratioP2;P2;SDS_P1;SDS_P2;PMS_P1;PMS_P2;Temp;Humidity;BMP_temperature;BMP_pressure;BME280_temperature;BME280_humidity;BME280_pressure;Samples;Min_cycle;Max_cycle;Signal;HPM_P1;HPM_P2
2022/01/26 00:06:40;;;;;;;;;;;4.20;99.90;;;;;;5001640;28;20059;-68
2022/01/26 00:09:06;;;;;;;17.98;10.90;;;4.20;99.90;;;;;;4999832;28;19960;-68
2022/01/26 00:11:33;;;;;;;16.92;9.45;;;4.20;99.90;;;;;;5000108;28;20100;-68
2022/01/26 00:14:01;;;;;;;14.80;8.18;;;4.20;99.90;;;;;;5000426;28;20030;-68
2022/01/26 00:16:28;;;;;;;21.33;10.13;;;4.20;99.90;;;;;;5000794;28;20034;-68
2022/01/26 00:18:59;;;;;;;14.35;9.10;;;4.20;99.90;;;;;;5001262;28;20056;-68
2022/01/26 00:21:30;;;;;;;17.27;9.75;;;4.20;99.90;;;;;;5001631;28;20033;-69
2022/01/26 00:26:31;;;;;;;17.60;9.38;;;4.20;99.90;;;;;;5000872;28;20443;-68
2022/01/26 00:29:13;;;;;;;18.20;9.60;;;4.20;99.90;;;;;;5000852;28;20034;-68
2022/01/26 00:33:06;;;;;;;16.63;10.38;;;4.20;99.90;;;;;;5001409;28;20394;-68
2022/01/26 00:42:59;;;;;;;18.67;9.68;;;4.20;99.90;;;;;;5000668;28;20164;-68
2022/01/26 00:45:32;;;;;;;21.02;10.95;;;4.20;99.90;;;;;;5001458;28;20384;-68
2022/01/26 00:48:00;;;;;;;18.02;9.80;;;4.20;99.90;;;;;;5001974;28;20030;-68
2022/01/26 00:50:26;;;;;;;21.25;10.23;;;4.20;99.90;;;;;;5001135;28;20057;-68
2022/01/26 00:52:54;;;;;;;14.38;8.52;;;4.20;99.90;;;;;;5001451;28;20054;-68
2022/01/26 00:55:20;;;;;;;18.05;9.23;;;4.20;99.90;;;;;;5000843;28;20037;-68
2022/01/26 00:57:46;;;;;;;18.83;10.32;;;4.10;99.90;;;;;;5000525;28;20128;-68
2022/01/26 01:00:17;;;;;;;16.95;9.88;;;4.10;99.90;;;;;;5002376;28;20029;-68
2022/01/26 01:02:43;;;;;;;17.55;9.32;;;4.10;99.90;;;;;;4999852;28;20034;-68
2022/01/26 01:05:24;;;;;;;19.85;10.38;;;4.10;99.90;;;;;;4998033;28;20041;-68
2022/01/26 01:07:57;;;;;;;17.02;9.27;;;4.10;99.90;;;;;;4999676;28;20584;-68
2022/01/26 01:10:24;;;;;;;15.65;9.13;;;4.10;99.90;;;;;;4999560;28;20402;-68
2022/01/26 01:12:55;;;;;;;16.63;9.32;;;4.00;99.90;;;;;;4999362;28;20053;-68
2022/01/26 01:15:21;;;;;;;25.38;13.50;;;4.00;99.90;;;;;;4999839;28;20072;-68
2022/01/26 01:17:52;;;;;;;18.80;11.02;;;4.00;99.90;;;;;;4999699;28;20030;-68
2022/01/26 01:21:04;;;;;;;22.55;11.93;;;4.00;99.90;;;;;;4999264;28;20042;-68
2022/01/26 01:26:25;;;;;;;22.98;10.73;;;4.00;99.90;;;;;;4999463;28;20030;-68
2022/01/26 01:34:04;;;;;;;19.70;10.98;;;4.10;99.90;;;;;;5001174;28;20273;-68
2022/01/26 01:36:30;;;;;;;15.38;9.43;;;4.10;99.90;;;;;;4999202;28;20519;-69
2022/01/26 01:38:57;;;;;;;17.42;10.50;;;4.10;99.90;;;;;;4998794;28;20030;-69
2022/01/26 01:41:22;;;;;;;21.35;10.60;;;4.10;99.90;;;;;;4999382;28;20030;-68
2022/01/26 01:43:48;;;;;;;20.80;9.65;;;4.10;99.90;;;;;;4999650;28;20096;-68
2022/01/26 01:46:13;;;;;;;26.45;11.05;;;4.10;99.90;;;;;;4999767;28;20428;-68
2022/01/26 01:48:39;;;;;;;17.65;9.43;;;4.10;99.90;;;;;;4999698;28;20056;-68
2022/01/26 01:51:08;;;;;;;18.83;9.48;;;4.10;99.90;;;;;;5000493;28;20049;-68
2022/01/26 01:53:39;;;;;;;19.02;8.90;;;4.10;99.90;;;;;;4997874;28;20036;-68
2022/01/26 01:56:06;;;;;;;15.02;8.32;;;4.10;99.90;;;;;;4999425;28;20041;-68
2022/01/26 01:58:32;;;;;;;22.15;10.45;;;4.00;99.90;;;;;;4999595;28;20054;-68
2022/01/26 02:00:58;;;;;;;17.25;8.18;;;4.00;99.90;;;;;;5000129;28;20517;-68
2022/01/26 02:03:24;;;;;;;15.57;7.80;;;3.90;99.90;;;;;;4998917;28;20042;-68
2022/01/26 02:05:50;;;;;;;17.40;9.55;;;3.90;99.90;;;;;;5000172;28;20061;-68
2022/01/26 02:08:16;;;;;;;19.05;9.27;;;3.90;99.90;;;;;;4996950;28;20084;-68
2022/01/26 02:10:42;;;;;;;22.55;9.07;;;3.80;99.90;;;;;;4998361;28;20184;-68
2022/01/26 02:13:18;;;;;;;18.60;11.07;;;3.80;99.90;;;;;;4999180;28;20038;-68
2022/01/26 02:16:03;;;;;;;15.63;8.57;;;3.70;99.90;;;;;;4999481;28;20029;-68
2022/01/26 02:18:40;;;;;;;19.40;9.10;;;3.70;99.90;;;;;;4999502;28;20026;-68
2022/01/26 02:21:28;;;;;;;27.70;11.02;;;3.70;99.90;;;;;;4999123;28;20026;-68
2022/01/26 02:56:41;;;;;;;20.08;10.15;;;3.80;99.90;;;;;;4998778;28;20172;-69
2022/01/26 02:59:47;;;;;;;16.38;8.65;;;3.80;99.90;;;;;;4999620;28;20026;-68
2022/01/26 03:02:23;;;;;;;17.50;10.32;;;3.70;99.90;;;;;;4999692;28;20026;-68
2022/01/26 03:04:52;;;;;;;20.02;10.43;;;3.80;99.90;;;;;;4998832;28;20436;-68
2022/01/26 03:07:24;;;;;;;17.30;8.38;;;3.70;99.90;;;;;;4999285;28;20292;-68
2022/01/26 03:10:01;;;;;;;18.13;9.02;;;3.70;99.90;;;;;;5000271;28;20489;-68
2022/01/26 03:12:36;;;;;;;;;;;3.70;99.90;;;;;;4999874;28;20022;-68
2022/01/26 03:15:11;;;;;;;22.40;9.02;;;3.70;99.90;;;;;;4998666;28;19913;-68
2022/01/26 03:18:08;;;;;;;20.50;10.40;;;3.70;99.90;;;;;;4998699;28;20072;-68
2022/01/26 03:20:33;;;;;;;19.70;10.35;;;3.70;99.90;;;;;;4997846;28;20066;-68
2022/01/26 03:28:40;;;;;;;17.10;9.80;;;3.70;99.90;;;;;;4998430;28;20525;-69
2022/01/26 03:31:43;;;;;;;20.75;9.95;;;3.70;99.90;;;;;;4998179;28;20032;-68
2022/01/26 03:34:02;;;;;;;27.77;10.45;;;3.70;99.90;;;;;;4999224;28;20026;-68
2022/01/26 03:36:32;;;;;;;22.00;9.68;;;3.70;99.90;;;;;;4998096;28;20026;-68
2022/01/26 03:39:08;;;;;;;20.15;9.63;;;3.70;99.90;;;;;;4998286;28;20121;-69
2022/01/26 03:41:41;;;;;;;18.20;9.57;;;3.70;99.90;;;;;;4997955;28;20105;-68
2022/01/26 03:44:07;;;;;;;29.95;10.95;;;3.70;99.90;;;;;;4998031;28;20375;-68
2022/01/26 03:46:34;;;;;;;20.42;10.48;;;3.70;99.90;;;;;;4998216;28;20863;-68
2022/01/26 03:49:00;;;;;;;19.17;10.82;;;3.70;99.90;;;;;;5001599;28;20174;-68
2022/01/26 03:51:26;;;;;;;22.15;9.77;;;3.60;99.90;;;;;;5001962;28;20026;-68
2022/01/26 03:53:51;;;;;;;;;;;3.60;99.90;;;;;;5003241;28;20384;-68
2022/01/26 03:56:17;;;;;;;16.50;8.70;;;3.60;99.90;;;;;;5001138;28;19940;-68
2022/01/26 03:58:42;;;;;;;19.13;9.65;;;3.60;99.90;;;;;;5000849;28;20037;-68
2022/01/26 04:01:08;;;;;;;24.75;10.68;;;3.60;99.90;;;;;;5002083;28;20073;-68
2022/01/26 04:03:34;;;;;;;21.05;10.40;;;3.60;99.90;;;;;;5001429;28;20027;-68
2022/01/26 04:05:59;;;;;;;23.08;10.90;;;3.60;99.90;;;;;;5002406;28;20045;-68
2022/01/26 04:08:29;;;;;;;21.52;11.40;;;3.60;99.90;;;;;;5001053;28;20520;-68
2022/01/26 04:13:24;;;;;;;17.90;9.95;;;3.60;99.90;;;;;;5002707;28;20022;-68
2022/01/26 04:15:49;;;;;;;19.88;9.77;;;3.50;99.90;;;;;;5002668;28;20042;-68
2022/01/26 04:18:20;;;;;;;19.98;9.88;;;3.50;99.90;;;;;;5001564;28;20435;-68
2022/01/26 04:20:50;;;;;;;19.02;10.55;;;3.50;99.90;;;;;;5000856;28;20053;-68
2022/01/26 04:23:26;;;;;;;19.90;9.70;;;3.50;99.90;;;;;;4999765;28;20483;-68
2022/01/26 04:25:53;;;;;;;;;;;3.50;99.90;;;;;;5000869;28;20045;-68
2022/01/26 04:28:28;;;;;;;15.40;8.75;;;3.50;99.90;;;;;;5000705;28;20367;-68
2022/01/26 04:30:54;;;;;;;17.02;8.90;;;3.40;99.90;;;;;;5000679;28;20089;-68
2022/01/26 04:33:19;;;;;;;16.65;8.55;;;3.40;99.90;;;;;;5000382;28;20030;-68
2022/01/26 04:35:47;;;;;;;20.30;8.10;;;3.40;99.90;;;;;;4999973;28;20030;-68
2022/01/26 04:38:20;;;;;;;20.88;10.20;;;3.40;99.90;;;;;;4997552;28;20038;-68
2022/01/26 04:40:58;;;;;;;24.20;10.68;;;3.40;99.90;;;;;;5000599;28;20093;-68
2022/01/26 04:43:27;;;;;;;19.83;8.52;;;3.50;99.90;;;;;;5000400;28;20034;-69
2022/01/26 04:45:53;;;;;;;19.75;8.38;;;3.40;99.90;;;;;;5025147;23;20052;-84
2022/01/26 04:48:19;;;;;;;19.08;9.65;;;3.40;99.90;;;;;;5016139;28;20104;-84
2022/01/26 04:50:45;;;;;;;19.60;9.25;;;3.50;99.90;;;;;;5016538;28;20033;-83
2022/01/26 04:53:11;;;;;;;17.70;8.75;;;3.50;99.90;;;;;;5016373;28;20079;-83
2022/01/26 04:55:36;;;;;;;16.20;8.98;;;3.40;99.90;;;;;;5015837;28;20405;-84
2022/01/26 04:58:02;;;;;;;22.25;9.02;;;3.40;99.90;;;;;;5014210;28;20040;-84
2022/01/26 05:00:28;;;;;;;21.27;9.43;;;3.40;99.90;;;;;;5013249;28;20370;-84
2022/01/26 05:02:53;;;;;;;20.65;8.57;;;3.40;99.90;;;;;;5015767;28;20041;-83
2022/01/26 05:05:19;;;;;;;21.80;10.65;;;3.40;99.90;;;;;;5015114;28;20037;-83
2022/01/26 05:07:44;;;;;;;20.67;9.93;;;3.40;99.90;;;;;;5016575;28;20033;-82
2022/01/26 05:10:10;;;;;;;19.95;11.18;;;3.40;99.90;;;;;;5010893;28;20550;-82
2022/01/26 05:12:37;;;;;;;20.60;11.07;;;3.40;99.90;;;;;;5015646;28;20112;-82
2022/01/26 05:15:03;;;;;;;21.70;9.65;;;3.30;99.90;;;;;;5017455;28;20026;-82
2022/01/26 05:17:28;;;;;;;;;;;3.30;99.90;;;;;;5015520;28;20144;-82
2022/01/26 05:19:57;;;;;;;22.55;9.68;;;3.30;99.90;;;;;;5016590;28;20332;-83
2022/01/26 05:22:23;;;;;;;27.10;12.52;;;3.30;99.90;;;;;;5013976;28;20065;-83
2022/01/26 05:24:49;;;;;;;17.52;9.32;;;3.30;99.90;;;;;;5021260;23;20447;-60
2022/01/26 05:27:14;;;;;;;;;;;3.50;99.90;;;;;;5010697;28;20034;-60
2022/01/26 05:29:40;;;;;;;18.65;8.88;;;4.60;99.90;;;;;;5006281;28;19917;-57
2022/01/26 05:32:06;;;;;;;23.38;11.98;;;5.40;99.90;;;;;;5009023;28;20021;-60
2022/01/26 05:34:31;;;;;;;28.05;12.55;;;6.20;99.90;;;;;;5015389;28;20544;-58
2022/01/26 05:36:57;;;;;;;25.35;12.25;;;6.10;99.90;;;;;;5006670;28;20029;-60
2022/01/26 05:39:23;;;;;;;32.58;13.43;;;5.50;99.90;;;;;;5009416;28;20553;-61
2022/01/26 05:41:48;;;;;;;22.63;11.77;;;4.90;99.90;;;;;;5010365;28;20026;-61
2022/01/26 05:44:14;;;;;;;25.13;12.85;;;4.50;99.90;;;;;;5011591;28;20034;-59
2022/01/26 05:46:49;;;;;;;29.05;12.65;;;4.20;99.90;;;;;;5008632;28;20030;-60
2022/01/26 05:49:17;;;;;;;28.85;12.75;;;4.00;99.90;;;;;;5002076;28;20084;-58
2022/01/26 05:51:45;;;;;;;26.05;12.63;;;3.80;99.90;;;;;;5007292;28;20037;-60
2022/01/26 05:54:11;;;;;;;26.08;15.10;;;3.60;99.90;;;;;;5011183;28;20406;-60
2022/01/26 05:56:37;;;;;;;30.27;13.73;;;3.60;99.90;;;;;;5005203;28;20033;-60
2022/01/26 05:59:03;;;;;;;28.77;14.60;;;3.50;99.90;;;;;;5004142;28;20053;-60
2022/01/26 06:01:29;;;;;;;37.38;16.23;;;3.40;99.90;;;;;;5005435;28;20415;-60
2022/01/26 06:03:54;;;;;;;35.17;15.48;;;3.40;99.90;;;;;;5011065;28;20458;-60
2022/01/26 06:06:20;;;;;;;35.90;14.35;;;3.30;99.90;;;;;;5005208;28;20128;-59
2022/01/26 06:08:46;;;;;;;31.15;14.35;;;3.30;99.90;;;;;;5009816;28;20033;-60
2022/01/26 06:11:11;;;;;;;36.97;16.88;;;3.30;99.90;;;;;;5007815;28;20109;-60
2022/01/26 06:13:37;;;;;;;32.58;15.73;;;3.30;99.90;;;;;;5012923;28;20037;-59
2022/01/26 06:16:04;;;;;;;31.42;14.15;;;3.20;99.90;;;;;;5010813;28;20030;-58
2022/01/26 06:18:30;;;;;;;34.03;15.10;;;3.20;99.90;;;;;;5002864;28;20065;-59
2022/01/26 06:20:56;;;;;;;33.78;17.25;;;3.20;99.90;;;;;;5008385;28;20034;-60
2022/01/26 06:23:25;;;;;;;34.15;16.85;;;3.20;99.90;;;;;;5003433;28;20025;-60
2022/01/26 06:25:56;;;;;;;43.50;15.52;;;3.20;99.90;;;;;;5010969;28;20041;-60
2022/01/26 06:28:28;;;;;;;40.65;15.82;;;3.20;99.90;;;;;;5007860;28;20034;-59
2022/01/26 06:31:00;;;;;;;45.35;16.98;;;3.20;99.90;;;;;;5003129;28;20025;-60
2022/01/26 06:33:27;;;;;;;41.45;15.70;;;3.20;99.90;;;;;;5007280;28;20248;-60
2022/01/26 06:35:53;;;;;;;41.55;17.05;;;3.20;99.90;;;;;;5014681;28;20029;-59
2022/01/26 06:38:19;;;;;;;;;;;3.20;99.90;;;;;;5010699;28;20025;-61
2022/01/26 06:40:44;;;;;;;31.95;15.75;;;3.20;99.90;;;;;;5013772;28;19913;-60
2022/01/26 06:43:13;;;;;;;37.13;14.68;;;3.20;99.90;;;;;;5009505;28;20481;-61
2022/01/26 06:45:54;;;;;;;42.10;18.08;;;3.20;99.90;;;;;;5014728;28;20502;-61
2022/01/26 06:51:04;;;;;;;50.25;18.90;;;3.20;99.90;;;;;;5012919;28;20036;-60
2022/01/26 06:53:30;;;;;;;46.00;19.60;;;3.20;99.90;;;;;;5008221;28;20025;-61
2022/01/26 06:55:56;;;;;;;40.65;18.52;;;3.20;99.90;;;;;;5007876;28;20407;-60
2022/01/26 06:58:22;;;;;;;48.58;18.67;;;3.20;99.90;;;;;;5013160;28;20033;-60
2022/01/26 07:00:48;;;;;;;40.95;17.95;;;3.20;99.90;;;;;;5014050;28;20041;-59
2022/01/26 07:03:13;;;;;;;43.40;18.70;;;3.20;99.90;;;;;;5008255;28;20025;-58
2022/01/26 07:05:40;;;;;;;40.42;17.65;;;3.20;99.90;;;;;;5006667;28;20120;-60
2022/01/26 07:08:06;;;;;;;44.90;19.85;;;3.20;99.90;;;;;;5007593;28;20034;-60
2022/01/26 07:10:32;;;;;;;44.22;19.17;;;3.20;99.90;;;;;;5006611;28;20403;-59
2022/01/26 07:12:57;;;;;;;46.33;18.45;;;3.30;99.90;;;;;;5007770;28;20639;-67
2022/01/26 07:21:43;;;;;;;43.17;19.90;;;3.20;99.90;;;;;;5000647;28;20518;-61
2022/01/26 07:23:49;;;;;;;50.28;22.13;;;3.20;99.90;;;;;;5005123;28;20041;-61
2022/01/26 07:26:15;;;;;;;50.28;18.50;;;3.20;99.90;;;;;;5013654;28;20037;-60
2022/01/26 07:28:41;;;;;;;;;;;3.20;99.90;;;;;;5010593;28;20045;-60
2022/01/26 07:31:07;;;;;;;44.15;17.42;;;3.20;99.90;;;;;;5009183;28;20429;-60
2022/01/26 07:33:34;;;;;;;40.45;17.75;;;3.10;99.90;;;;;;5020966;28;20029;-61
2022/01/26 07:36:00;;;;;;;50.13;18.85;;;3.10;99.90;;;;;;5017748;28;20432;-60
2022/01/26 07:38:26;;;;;;;47.05;21.70;;;3.10;99.90;;;;;;5007198;28;20026;-60
2022/01/26 07:40:55;;;;;;;34.38;16.08;;;3.10;99.90;;;;;;5013183;28;20060;-60
2022/01/26 07:43:21;;;;;;;39.72;16.77;;;3.10;99.90;;;;;;5010628;28;20107;-60
2022/01/26 07:45:47;;;;;;;41.65;17.58;;;3.10;99.90;;;;;;5011747;28;20096;-58
2022/01/26 07:48:13;;;;;;;43.17;17.20;;;3.10;99.90;;;;;;5014441;28;20539;-60
2022/01/26 07:50:38;;;;;;;46.35;18.38;;;3.10;99.90;;;;;;5007316;28;20527;-57
2022/01/26 07:53:04;;;;;;;47.42;18.88;;;3.10;99.90;;;;;;5005100;28;20036;-59
2022/01/26 07:55:31;;;;;;;41.45;17.20;;;3.10;99.90;;;;;;5010764;28;20121;-60
2022/01/26 07:57:57;;;;;;;44.58;18.05;;;3.10;99.90;;;;;;5010570;28;20029;-60
2022/01/26 08:00:23;;;;;;;41.08;17.13;;;3.10;99.90;;;;;;5011405;28;20074;-59
2022/01/26 08:02:49;;;;;;;45.17;17.67;;;3.10;99.90;;;;;;5006727;28;20022;-57
2022/01/26 08:05:15;;;;;;;43.97;17.13;;;3.10;99.90;;;;;;5015203;28;20563;-59
2022/01/26 08:07:41;;;;;;;;;;;3.10;99.90;;;;;;5011901;28;20045;-60
2022/01/26 08:10:08;;;;;;;48.67;18.63;;;3.10;99.90;;;;;;5008287;28;19941;-61
2022/01/26 08:12:33;;;;;;;50.35;18.08;;;3.10;99.90;;;;;;5013145;28;20041;-60
2022/01/26 08:14:59;;;;;;;51.35;18.90;;;3.10;99.90;;;;;;5010732;28;20032;-60
2022/01/26 08:17:25;;;;;;;54.95;18.10;;;3.10;99.90;;;;;;5014158;28;20442;-60
2022/01/26 08:19:53;;;;;;;58.28;20.25;;;3.10;99.90;;;;;;5010337;28;20025;-60
2022/01/26 08:22:20;;;;;;;53.65;18.73;;;3.10;99.90;;;;;;5018107;28;20376;-61
2022/01/26 08:24:46;;;;;;;57.42;22.05;;;3.00;99.90;;;;;;5013235;28;20057;-59
2022/01/26 08:27:14;;;;;;;57.25;20.58;;;3.00;99.90;;;;;;5011535;28;20030;-60
2022/01/26 08:29:44;;;;;;;56.78;19.30;;;3.00;99.90;;;;;;5014142;28;20414;-60
2022/01/26 08:32:10;;;;;;;50.38;20.58;;;3.10;99.90;;;;;;5014262;28;20109;-60
2022/01/26 08:34:35;;;;;;;;;;;3.10;99.90;;;;;;5010559;28;20129;-59
2022/01/26 08:37:01;;;;;;;58.00;21.50;;;3.00;99.90;;;;;;5013826;28;20015;-59
2022/01/26 08:39:27;;;;;;;78.63;24.05;;;3.00;99.90;;;;;;5012262;28;20061;-60
2022/01/26 08:41:52;;;;;;;63.38;21.88;;;3.00;99.90;;;;;;5013933;28;20044;-59
2022/01/26 08:44:18;;;;;;;45.78;19.30;;;3.00;99.90;;;;;;5014848;28;20071;-60
2022/01/26 08:46:44;;;;;;;57.90;21.52;;;3.00;99.90;;;;;;5014837;28;20100;-58
2022/01/26 08:49:09;;;;;;;58.92;21.70;;;3.00;99.90;;;;;;5011460;28;20033;-61
2022/01/26 08:51:35;;;;;;;58.08;22.23;;;3.00;99.90;;;;;;5013753;28;20030;-58
2022/01/26 08:54:02;;;;;;;62.45;22.17;;;3.00;99.90;;;;;;5007112;28;20022;-58
2022/01/26 08:56:27;;;;;;;55.88;22.75;;;3.00;99.90;;;;;;5008169;28;20030;-60
2022/01/26 08:58:53;;;;;;;63.55;25.45;;;3.00;99.90;;;;;;5008040;28;20494;-58
2022/01/26 09:01:20;;;;;;;55.30;21.50;;;3.10;99.90;;;;;;5011846;28;20030;-60
2022/01/26 09:03:45;;;;;;;;;;;3.10;99.90;;;;;;5009053;28;20466;-58
2022/01/26 09:06:11;;;;;;;55.92;21.63;;;3.10;99.90;;;;;;5005551;28;20076;-60
2022/01/26 09:08:39;;;;;;;58.15;22.60;;;3.10;99.90;;;;;;5006076;28;20026;-59
2022/01/26 09:11:05;;;;;;;57.90;21.38;;;3.00;99.90;;;;;;5010916;28;20044;-56
2022/01/26 09:13:32;;;;;;;54.35;21.90;;;3.00;99.90;;;;;;5005432;28;20026;-59
2022/01/26 09:15:58;;;;;;;54.85;23.23;;;3.00;99.90;;;;;;5008627;28;20042;-60
2022/01/26 09:18:48;;;;;;;61.05;24.40;;;3.00;99.90;;;;;;5004962;28;20891;-59
2022/01/26 09:21:14;;;;;;;56.03;22.05;;;3.00;99.90;;;;;;5006596;28;20108;-61
2022/01/26 09:23:39;;;;;;;61.65;22.20;;;3.00;99.90;;;;;;5009513;28;20250;-60
2022/01/26 09:26:05;;;;;;;58.83;25.05;;;3.00;99.90;;;;;;5006447;28;20107;-60
2022/01/26 09:28:30;;;;;;;62.85;25.38;;;3.00;99.90;;;;;;5014040;28;20512;-59
2022/01/26 09:30:56;;;;;;;57.88;25.02;;;3.00;99.90;;;;;;5008130;28;20035;-61
2022/01/26 09:33:22;;;;;;;62.47;24.58;;;2.90;99.90;;;;;;5003657;28;20032;-61
2022/01/26 09:35:48;;;;;;;55.47;23.05;;;2.90;99.90;;;;;;5010624;28;20030;-59
2022/01/26 09:38:13;;;;;;;62.28;25.90;;;2.90;99.90;;;;;;5010189;28;20069;-56
2022/01/26 09:40:39;;;;;;;60.45;23.65;;;2.90;99.90;;;;;;5011858;28;20340;-58
2022/01/26 09:43:06;;;;;;;64.20;26.88;;;2.90;99.90;;;;;;5005069;28;20113;-59
2022/01/26 09:45:34;;;;;;;65.50;27.92;;;2.80;99.90;;;;;;5007545;28;20721;-56
2022/01/26 09:48:02;;;;;;;74.45;24.63;;;2.80;99.90;;;;;;5010250;28;20026;-60
2022/01/26 09:50:28;;;;;;;70.20;30.80;;;2.80;99.90;;;;;;5021423;28;20033;-59
2022/01/26 09:52:55;;;;;;;74.55;29.45;;;2.80;99.90;;;;;;5007243;28;20042;-60
2022/01/26 09:55:21;;;;;;;76.05;31.73;;;2.80;99.90;;;;;;5014333;28;20034;-61
2022/01/26 09:57:47;;;;;;;;;;;2.80;99.90;;;;;;5015065;28;20444;-60
2022/01/26 10:00:13;;;;;;;67.35;28.77;;;2.80;99.90;;;;;;5011389;28;19944;-61
2022/01/26 10:02:41;;;;;;;84.28;29.45;;;2.80;99.90;;;;;;5005918;28;20026;-60
2022/01/26 10:05:10;;;;;;;86.72;34.28;;;2.80;99.90;;;;;;5012148;28;20034;-60
2022/01/26 10:08:53;;;;;;;80.25;31.80;;;2.90;99.90;;;;;;5007978;28;20049;-60
2022/01/26 10:19:05;;;;;;;82.35;36.53;;;2.80;99.90;;;;;;5008988;28;20036;-60
2022/01/26 10:21:31;;;;;;;81.15;34.15;;;2.90;99.90;;;;;;5007418;28;20259;-59
2022/01/26 10:24:08;;;;;;;;;;;2.90;99.90;;;;;;5008833;28;20022;-60
2022/01/26 10:26:33;;;;;;;76.72;32.33;;;2.80;99.90;;;;;;5010600;28;20011;-60
2022/01/26 10:29:02;;;;;;;100.35;38.45;;;2.80;99.90;;;;;;5011698;28;20611;-59
2022/01/26 10:31:27;;;;;;;87.50;35.63;;;2.80;99.90;;;;;;5010703;28;20084;-60
2022/01/26 10:33:56;;;;;;;88.50;33.97;;;2.80;99.90;;;;;;5008087;28;20022;-60
2022/01/26 10:36:22;;;;;;;90.72;36.55;;;2.80;99.90;;;;;;5013084;28;20573;-58
2022/01/26 10:39:05;;;;;;;87.70;38.75;;;2.80;99.90;;;;;;5009616;28;20034;-60
2022/01/26 10:41:31;;;;;;;94.68;37.50;;;2.80;99.90;;;;;;5010898;28;20656;-60
2022/01/26 10:43:59;;;;;;;90.30;40.13;;;2.90;99.90;;;;;;5015084;28;20127;-59
2022/01/26 10:46:35;;;;;;;78.30;36.30;;;2.90;99.90;;;;;;5032286;23;20414;-57
2022/01/26 10:49:17;;;;;;;82.30;37.13;;;2.80;99.90;;;;;;5021516;28;20022;-56
2022/01/26 10:54:24;;;;;;;90.45;39.63;;;2.80;99.90;;;;;;5022533;28;20386;-55
2022/01/26 10:56:51;;;;;;;95.15;37.70;;;2.80;99.90;;;;;;5022287;28;20107;-57
2022/01/26 10:59:18;;;;;;;110.53;43.53;;;2.80;99.90;;;;;;5026257;28;20037;-57
2022/01/26 11:01:44;;;;;;;86.03;35.60;;;2.80;99.90;;;;;;5025483;28;20044;-55
2022/01/26 11:04:10;;;;;;;90.03;37.63;;;2.80;99.90;;;;;;5027282;28;20355;-56
2022/01/26 11:06:40;;;;;;;93.85;39.38;;;2.80;99.90;;;;;;5025294;28;20041;-57
2022/01/26 11:09:11;;;;;;;94.63;39.65;;;2.80;99.90;;;;;;5024918;28;20750;-56
2022/01/26 11:11:40;;;;;;;95.78;38.17;;;2.80;99.90;;;;;;5025708;28;20029;-57
2022/01/26 11:14:39;;;;;;;89.90;35.38;;;2.80;99.90;;;;;;5026382;28;20049;-55
2022/01/26 11:17:05;;;;;;;102.55;38.53;;;2.80;99.90;;;;;;5004605;28;20445;-57
2022/01/26 11:19:45;;;;;;;95.95;36.38;;;2.70;99.90;;;;;;5025744;28;20075;-57
2022/01/26 11:22:13;;;;;;;99.07;36.00;;;2.80;99.90;;;;;;5025861;28;20447;-57
2022/01/26 11:24:45;;;;;;;93.43;37.08;;;2.80;99.90;;;;;;5022888;28;20486;-55
2022/01/26 11:27:11;;;;;;;95.45;35.53;;;2.80;99.90;;;;;;5024506;28;20041;-56
2022/01/26 11:29:42;;;;;;;102.40;37.05;;;2.80;99.90;;;;;;5025898;28;20159;-57
2022/01/26 11:32:14;;;;;;;88.88;31.77;;;2.80;99.90;;;;;;5026301;28;20035;-57
2022/01/26 11:34:41;;;;;;;78.85;31.08;;;2.80;99.90;;;;;;5025463;28;20029;-58
2022/01/26 11:37:11;;;;;;;86.95;31.98;;;2.80;99.90;;;;;;5024558;28;20060;-56
2022/01/26 11:45:13;;;;;;;88.70;32.72;;;2.90;99.90;;;;;;5024349;28;20036;-55
2022/01/26 11:47:57;;;;;;;84.60;31.58;;;2.90;99.90;;;;;;5024257;28;20041;-56
2022/01/26 11:50:24;;;;;;;81.07;32.80;;;3.00;99.90;;;;;;5024562;28;20026;-57
2022/01/26 11:53:08;;;;;;;84.95;30.45;;;3.00;99.90;;;;;;5022323;28;20456;-57
2022/01/26 11:55:34;;;;;;;87.95;32.60;;;3.00;99.90;;;;;;5024730;28;20028;-58
2022/01/26 11:58:30;;;;;;;94.85;34.42;;;3.00;99.90;;;;;;5026079;28;20347;-56
2022/01/26 12:01:12;;;;;;;80.90;32.92;;;2.90;99.90;;;;;;5026075;28;20395;-57
2022/01/26 12:03:45;;;;;;;93.90;29.23;;;3.00;99.90;;;;;;5025741;28;20033;-56
2022/01/26 12:06:20;;;;;;;84.88;31.35;;;2.90;99.90;;;;;;5026550;28;20080;-58
2022/01/26 12:08:47;;;;;;;103.90;36.85;;;3.00;99.90;;;;;;5025772;28;20037;-56
2022/01/26 12:11:16;;;;;;;132.32;34.88;;;3.00;99.90;;;;;;5024830;28;20021;-57
2022/01/26 12:13:43;;;;;;;97.82;34.58;;;3.10;99.90;;;;;;5024970;28;20029;-56
2022/01/26 12:16:15;;;;;;;96.93;36.33;;;3.10;99.90;;;;;;5024527;28;20033;-55
2022/01/26 12:19:11;;;;;;;94.97;33.72;;;3.10;99.90;;;;;;5023929;28;20037;-57
2022/01/26 12:35:38;;;;;;;97.03;37.20;;;3.20;99.90;;;;;;5024067;28;20053;-57
2022/01/26 12:43:40;;;;;;;104.63;37.17;;;3.20;99.90;;;;;;5026568;28;20095;-57
2022/01/26 12:46:09;;;;;;;93.00;34.63;;;3.30;99.90;;;;;;5026173;28;20091;-57
2022/01/26 12:48:38;;;;;;;99.55;39.70;;;3.30;99.90;;;;;;5025328;28;20033;-57
2022/01/26 12:51:03;;;;;;;95.03;35.30;;;3.30;99.90;;;;;;5027521;28;20446;-56
2022/01/26 12:53:32;;;;;;;95.03;35.47;;;3.30;99.90;;;;;;5021472;28;20064;-58
2022/01/26 12:55:59;;;;;;;127.25;38.58;;;3.30;99.90;;;;;;5022260;28;20037;-57
2022/01/26 12:58:30;;;;;;;80.15;30.60;;;3.40;99.90;;;;;;5022536;28;20470;-56
2022/01/26 13:01:04;;;;;;;85.72;35.35;;;3.40;99.90;;;;;;5021941;28;20132;-54
2022/01/26 13:03:34;;;;;;;90.95;33.70;;;3.40;99.90;;;;;;5024254;28;20453;-57
2022/01/26 13:06:21;;;;;;;89.88;33.90;;;3.40;99.90;;;;;;5024116;28;20047;-56
2022/01/26 13:08:52;;;;;;;;;;;3.40;99.90;;;;;;5022972;28;20049;-56
2022/01/26 13:11:30;;;;;;;86.03;33.55;;;3.40;99.90;;;;;;5024307;28;20048;-57
2022/01/26 13:14:10;;;;;;;76.15;33.67;;;3.40;99.90;;;;;;5023531;28;20337;-57
2022/01/26 13:16:38;;;;;;;87.60;35.80;;;3.40;99.90;;;;;;5023881;28;20040;-57
2022/01/26 13:22:55;;;;;;;92.65;37.22;;;3.40;99.90;;;;;;5023464;28;20026;-57
2022/01/26 13:25:00;;;;;;;79.95;32.83;;;3.40;99.90;;;;;;5022947;28;20473;-57
2022/01/26 13:35:20;;;;;;;89.90;36.60;;;3.40;99.90;;;;;;5024576;28;20116;-57
2022/01/26 13:46:13;;;;;;;93.65;35.50;;;3.40;99.90;;;;;;5021835;28;20033;-57
2022/01/26 13:52:19;;;;;;;79.78;32.85;;;3.40;99.90;;;;;;5022788;28;20182;-57
2022/01/26 13:59:25;;;;;;;92.82;34.40;;;3.50;99.90;;;;;;5022158;28;20079;-57
2022/01/26 14:01:52;;;;;;;85.22;35.22;;;3.40;99.90;;;;;;5021273;28;20123;-56
2022/01/26 14:04:18;;;;;;;92.32;35.42;;;3.40;99.90;;;;;;5023875;28;20132;-58
2022/01/26 14:06:46;;;;;;;88.05;36.60;;;3.40;99.90;;;;;;5023158;28;20026;-58
2022/01/26 14:09:12;;;;;;;105.63;38.78;;;3.40;99.90;;;;;;5021317;28;20049;-56
2022/01/26 14:11:38;;;;;;;;;;;3.40;99.90;;;;;;5021975;28;20033;-56
2022/01/26 14:14:04;;;;;;;87.90;32.47;;;3.30;99.90;;;;;;5023660;28;19913;-53
2022/01/26 14:16:37;;;;;;;86.40;35.72;;;3.40;99.90;;;;;;5020925;28;20029;-56
2022/01/26 14:19:08;;;;;;;95.30;37.30;;;3.40;99.90;;;;;;5021413;28;20522;-56
2022/01/26 14:26:51;;;;;;;98.75;37.08;;;3.40;99.90;;;;;;5021298;28;20340;-56
2022/01/26 14:29:29;;;;;;;94.55;37.13;;;3.40;99.90;;;;;;5022289;28;20025;-57
2022/01/26 14:40:10;;;;;;;91.97;37.60;;;3.40;99.90;;;;;;5022229;28;20034;-57
2022/01/26 14:51:01;;;;;;;77.32;31.45;;;3.30;99.90;;;;;;5022227;28;20075;-57
2022/01/26 15:42:25;;;;;;;88.30;34.05;;;3.10;99.90;;;;;;5022846;28;20396;-57
2022/01/26 15:48:43;;;;;;;78.15;32.53;;;3.10;99.90;;;;;;5027191;28;20029;-56
2022/01/26 15:48:47;;;;;;;85.30;34.78;;;3.10;99.90;;;;;;5026876;28;20029;-58
2022/01/26 15:51:02;;;;;;;83.97;35.30;;;3.10;99.90;;;;;;5025405;28;20038;-57
2022/01/26 16:05:03;;;;;;;87.93;35.25;;;3.10;99.90;;;;;;5025992;28;20288;-56
2022/01/26 16:07:40;;;;;;;81.05;32.92;;;3.10;99.90;;;;;;5025490;28;20030;-56
2022/01/26 16:16:32;;;;;;;83.80;33.95;;;3.10;99.90;;;;;;5025544;28;20032;-56
2022/01/26 16:35:19;;;;;;;71.43;31.20;;;3.20;99.90;;;;;;5024750;28;20075;-56
2022/01/26 17:34:27;;;;;;;66.32;25.58;;;3.30;99.90;;;;;;4964362;28;20477;-60
2022/01/26 18:15:48;;;;;;;62.20;22.40;;;3.40;99.90;;;;;;4977508;28;20023;-58
2022/01/26 18:26:49;;;;;;;55.03;21.15;;;3.30;99.90;;;;;;4975983;28;20046;-59
2022/01/26 18:40:26;;;;;;;61.35;20.63;;;3.30;99.90;;;;;;4968088;28;20053;-59
2022/01/26 18:51:09;;;;;;;44.90;19.27;;;4.70;99.90;;;;;;4965173;28;20270;-60
2022/01/26 18:53:36;;;;;;;50.95;19.80;;;4.30;99.90;;;;;;4968545;28;20034;-60
2022/01/26 18:56:02;;;;;;;52.58;21.67;;;4.00;99.90;;;;;;4970293;28;20424;-60
2022/01/26 18:58:27;;;;;;;45.75;20.25;;;3.90;99.90;;;;;;4976792;28;20129;-60
2022/01/26 19:00:53;;;;;;;46.90;20.85;;;3.80;99.90;;;;;;4972989;28;20130;-59